createdAt,value
2019-01-18T00:00:31.678Z,1009.1
2019-01-18T00:01:41.430Z,1009.1
2019-01-18T00:02:50.671Z,1009.15
2019-01-18T00:03:59.646Z,1009.18
2019-01-18T00:05:09.642Z,1009.15
2019-01-18T00:06:19.149Z,1009.16
2019-01-18T00:07:28.693Z,1009.14
2019-01-18T00:08:37.978Z,1009.16
2019-01-18T00:09:47.073Z,1009.2
2019-01-18T00:10:56.360Z,1009.23
2019-01-18T00:12:05.639Z,1009.27
2019-01-18T00:13:14.962Z,1009.34
2019-01-18T00:14:24.531Z,1009.36
2019-01-18T00:15:33.782Z,1009.36
2019-01-18T00:16:43.333Z,1009.37
2019-01-18T00:17:52.370Z,1009.35
2019-01-18T00:19:01.127Z,1009.38
2019-01-18T00:20:10.398Z,1009.37
2019-01-18T00:21:19.673Z,1009.39
2019-01-18T00:22:28.949Z,1009.41
2019-01-18T00:23:37.974Z,1009.39
2019-01-18T00:24:47.007Z,1009.41
2019-01-18T00:25:56.501Z,1009.46
2019-01-18T00:27:05.794Z,1009.45
2019-01-18T00:28:14.811Z,1009.51
2019-01-18T00:29:29.551Z,1009.51
2019-01-18T00:30:39.124Z,1009.51
2019-01-18T00:31:48.162Z,1009.53
2019-01-18T00:32:57.485Z,1009.53
2019-01-18T00:34:06.968Z,1009.5
2019-01-18T00:35:15.780Z,1009.53
2019-01-18T00:36:24.792Z,1009.49
2019-01-18T00:37:33.821Z,1009.51
2019-01-18T00:38:43.115Z,1009.57
2019-01-18T00:39:51.930Z,1009.58
2019-01-18T00:41:00.972Z,1009.56
2019-01-18T00:42:10.275Z,1009.62
2019-01-18T00:43:19.793Z,1009.64
2019-01-18T00:44:28.881Z,1009.61
2019-01-18T00:45:38.378Z,1009.65
2019-01-18T00:46:47.689Z,1009.6
2019-01-18T00:47:56.443Z,1009.61
2019-01-18T00:49:05.699Z,1009.63
2019-01-18T00:50:15.272Z,1009.6
2019-01-18T00:51:24.810Z,1009.62
2019-01-18T00:52:33.585Z,1009.6
2019-01-18T00:53:43.149Z,1009.66
2019-01-18T00:54:52.426Z,1009.73
2019-01-18T00:56:01.738Z,1009.7
2019-01-18T00:57:11.256Z,1009.77
2019-01-18T00:58:20.341Z,1009.75
2019-01-18T00:59:30.545Z,1009.79
2019-01-18T01:00:45.192Z,1009.78
2019-01-18T01:01:54.259Z,1009.81
2019-01-18T01:03:04.041Z,1009.82
2019-01-18T01:04:13.303Z,1009.82
2019-01-18T01:05:22.842Z,1009.86
2019-01-18T01:06:32.097Z,1009.94
2019-01-18T01:07:41.653Z,1009.9
2019-01-18T01:08:50.668Z,1009.94
2019-01-18T01:10:00.207Z,1009.94
2019-01-18T01:11:09.990Z,1009.97
2019-01-18T01:12:19.077Z,1010.01
2019-01-18T01:13:28.360Z,1009.97
2019-01-18T01:14:37.149Z,1010.03
2019-01-18T01:15:46.494Z,1010.04
2019-01-18T01:16:55.799Z,1010.05
2019-01-18T01:18:05.330Z,1010.07
2019-01-18T01:19:15.444Z,1010.09
2019-01-18T01:20:25.449Z,1010.14
2019-01-18T01:21:34.946Z,1010.15
2019-01-18T01:22:44.446Z,1010.18
2019-01-18T01:23:53.467Z,1010.24
2019-01-18T01:25:02.800Z,1010.25
2019-01-18T01:26:12.102Z,1010.27
2019-01-18T01:27:21.395Z,1010.26
2019-01-18T01:28:30.944Z,1010.25
2019-01-18T01:29:43.108Z,1010.28
2019-01-18T01:30:52.759Z,1010.3
2019-01-18T01:32:01.515Z,1010.31
2019-01-18T01:33:10.818Z,1010.28
2019-01-18T01:34:20.134Z,1010.26
2019-01-18T01:35:29.204Z,1010.27
2019-01-18T01:36:38.455Z,1010.27
2019-01-18T01:37:47.472Z,1010.31
2019-01-18T01:38:57.024Z,1010.33
2019-01-18T01:40:06.862Z,1010.37
2019-01-18T01:41:16.382Z,1010.37
2019-01-18T01:42:25.963Z,1010.43
2019-01-18T01:43:34.760Z,1010.45
2019-01-18T01:44:43.724Z,1010.5
2019-01-18T01:45:52.776Z,1010.51
2019-01-18T01:47:01.842Z,1010.52
2019-01-18T01:48:11.095Z,1010.55
2019-01-18T01:49:20.613Z,1010.57
2019-01-18T01:50:30.118Z,1010.53
2019-01-18T01:51:38.907Z,1010.55
2019-01-18T01:52:47.962Z,1010.55
2019-01-18T01:53:57.253Z,1010.59
2019-01-18T01:55:07.348Z,1010.62
2019-01-18T01:56:16.623Z,1010.61
2019-01-18T01:57:25.865Z,1010.68
2019-01-18T01:58:34.929Z,1010.68
2019-01-18T01:59:49.766Z,1010.67
2019-01-18T02:00:59.484Z,1010.69
2019-01-18T02:02:09.014Z,1010.71
2019-01-18T02:03:18.328Z,1010.76
2019-01-18T02:04:27.592Z,1010.76
2019-01-18T02:05:36.873Z,1010.77
2019-01-18T02:06:46.622Z,1010.8
2019-01-18T02:07:55.850Z,1010.84
2019-01-18T02:09:05.380Z,1010.85
2019-01-18T02:10:14.615Z,1010.81
2019-01-18T02:11:23.390Z,1010.84
2019-01-18T02:12:32.923Z,1010.86
2019-01-18T02:13:42.125Z,1010.82
2019-01-18T02:14:51.984Z,1010.84
2019-01-18T02:16:01.515Z,1010.85
2019-01-18T02:17:11.024Z,1010.88
2019-01-18T02:18:20.283Z,1010.89
2019-01-18T02:19:29.579Z,1010.94
2019-01-18T02:20:38.555Z,1010.94
2019-01-18T02:21:47.578Z,1010.97
2019-01-18T02:22:57.553Z,1010.94
2019-01-18T02:24:06.505Z,1010.99
2019-01-18T02:25:16.266Z,1011
2019-01-18T02:26:25.335Z,1011.04
2019-01-18T02:27:34.617Z,1011.05
2019-01-18T02:28:43.946Z,1011.04
2019-01-18T02:29:56.654Z,1011.13
2019-01-18T02:31:06.727Z,1011.1
2019-01-18T02:32:15.733Z,1011.11
2019-01-18T02:33:25.272Z,1011.15
2019-01-18T02:34:34.838Z,1011.16
2019-01-18T02:35:44.634Z,1011.17
2019-01-18T02:36:53.675Z,1011.2
2019-01-18T02:38:02.648Z,1011.22
2019-01-18T02:39:12.198Z,1011.22
2019-01-18T02:40:21.705Z,1011.27
2019-01-18T02:41:31.196Z,1011.26
2019-01-18T02:42:40.451Z,1011.31
2019-01-18T02:43:49.730Z,1011.33
2019-01-18T02:44:59.301Z,1011.31
2019-01-18T02:46:08.809Z,1011.37
2019-01-18T02:47:18.326Z,1011.35
2019-01-18T02:48:27.621Z,1011.4
2019-01-18T02:49:37.223Z,1011.4
2019-01-18T02:50:46.502Z,1011.41
2019-01-18T02:51:56.005Z,1011.46
2019-01-18T02:53:05.783Z,1011.43
2019-01-18T02:54:15.306Z,1011.47
2019-01-18T02:55:28.657Z,1011.42
2019-01-18T02:56:38.217Z,1011.46
2019-01-18T02:57:47.553Z,1011.45
2019-01-18T02:58:57.329Z,1011.47
2019-01-18T03:00:07.093Z,1011.52
2019-01-18T03:01:16.134Z,1011.5
2019-01-18T03:02:25.406Z,1011.54
2019-01-18T03:03:34.654Z,1011.54
2019-01-18T03:04:43.672Z,1011.58
2019-01-18T03:05:53.248Z,1011.6
2019-01-18T03:07:02.324Z,1011.64
2019-01-18T03:08:11.316Z,1011.64
2019-01-18T03:09:20.874Z,1011.68
2019-01-18T03:10:30.134Z,1011.73
2019-01-18T03:11:39.634Z,1011.81
2019-01-18T03:12:48.659Z,1011.82
2019-01-18T03:13:58.014Z,1011.82
2019-01-18T03:15:07.539Z,1011.84
2019-01-18T03:16:16.803Z,1011.87
2019-01-18T03:17:25.851Z,1011.88
2019-01-18T03:18:35.350Z,1011.91
2019-01-18T03:19:44.651Z,1011.94
2019-01-18T03:20:54.195Z,1011.95
2019-01-18T03:22:03.177Z,1011.98
2019-01-18T03:23:12.201Z,1011.97
2019-01-18T03:24:21.271Z,1012.02
2019-01-18T03:25:31.062Z,1012.05
2019-01-18T03:26:40.857Z,1012.05
2019-01-18T03:27:50.361Z,1012.04
2019-01-18T03:28:59.651Z,1012.06
2019-01-18T03:30:18.002Z,1012.09
2019-01-18T03:31:29.387Z,1012.16
2019-01-18T03:32:38.956Z,1012.16
2019-01-18T03:33:48.963Z,1012.22
2019-01-18T03:34:58.555Z,1012.22
2019-01-18T03:36:08.131Z,1012.26
2019-01-18T03:37:18.006Z,1012.27
2019-01-18T03:38:27.587Z,1012.34
2019-01-18T03:39:36.626Z,1012.34
2019-01-18T03:40:45.347Z,1012.39
2019-01-18T03:41:54.856Z,1012.39
2019-01-18T03:43:04.126Z,1012.37
2019-01-18T03:44:13.371Z,1012.38
2019-01-18T03:45:22.197Z,1012.38
2019-01-18T03:46:32.065Z,1012.43
2019-01-18T03:47:41.639Z,1012.39
2019-01-18T03:48:50.673Z,1012.5
2019-01-18T03:49:59.964Z,1012.53
2019-01-18T03:51:09.510Z,1012.56
2019-01-18T03:52:19.621Z,1012.55
2019-01-18T03:53:28.925Z,1012.62
2019-01-18T03:54:38.430Z,1012.64
2019-01-18T03:55:47.690Z,1012.64
2019-01-18T03:56:57.532Z,1012.64
2019-01-18T03:58:07.365Z,1012.69
2019-01-18T03:59:16.888Z,1012.67
2019-01-18T04:00:27.370Z,1012.65
2019-01-18T04:01:36.736Z,1012.67
2019-01-18T04:02:46.314Z,1012.69
2019-01-18T04:03:55.644Z,1012.68
2019-01-18T04:05:04.914Z,1012.67
2019-01-18T04:06:14.634Z,1012.75
2019-01-18T04:07:23.902Z,1012.75
2019-01-18T04:08:33.234Z,1012.73
2019-01-18T04:09:42.771Z,1012.78
2019-01-18T04:10:52.010Z,1012.76
2019-01-18T04:12:01.338Z,1012.82
2019-01-18T04:13:10.444Z,1012.77
2019-01-18T04:14:19.989Z,1012.78
2019-01-18T04:15:28.991Z,1012.81
2019-01-18T04:16:38.579Z,1012.89
2019-01-18T04:17:48.074Z,1012.87
2019-01-18T04:18:57.087Z,1012.87
2019-01-18T04:20:06.379Z,1012.91
2019-01-18T04:21:15.866Z,1012.88
2019-01-18T04:22:25.167Z,1012.96
2019-01-18T04:23:34.183Z,1012.94
2019-01-18T04:24:43.471Z,1012.96
2019-01-18T04:25:52.501Z,1012.96
2019-01-18T04:27:02.030Z,1012.96
2019-01-18T04:28:11.305Z,1012.97
2019-01-18T04:29:21.104Z,1012.96
2019-01-18T04:30:33.427Z,1012.98
2019-01-18T04:31:43.477Z,1013.01
2019-01-18T04:32:53.247Z,1013.01
2019-01-18T04:34:02.991Z,1013.06
2019-01-18T04:35:11.961Z,1013.07
2019-01-18T04:36:21.516Z,1013.06
2019-01-18T04:37:31.285Z,1013.1
2019-01-18T04:38:40.520Z,1013.08
2019-01-18T04:39:50.531Z,1013.09
2019-01-18T04:41:00.085Z,1013.11
2019-01-18T04:42:09.392Z,1013.1
2019-01-18T04:43:18.646Z,1013.12
2019-01-18T04:44:27.891Z,1013.14
2019-01-18T04:45:37.186Z,1013.05
2019-01-18T04:46:46.751Z,1013.09
2019-01-18T04:47:56.493Z,1013.09
2019-01-18T04:49:05.534Z,1013.1
2019-01-18T04:50:15.031Z,1013.11
2019-01-18T04:51:24.738Z,1013.09
2019-01-18T04:52:34.081Z,1013.12
2019-01-18T04:53:43.823Z,1013.12
2019-01-18T04:54:53.088Z,1013.12
2019-01-18T04:56:02.853Z,1013.14
2019-01-18T04:57:12.079Z,1013.14
2019-01-18T04:58:21.371Z,1013.15
2019-01-18T04:59:31.899Z,1013.16
2019-01-18T05:00:41.664Z,1013.21
2019-01-18T05:01:51.573Z,1013.18
2019-01-18T05:03:00.884Z,1013.27
2019-01-18T05:04:10.428Z,1013.24
2019-01-18T05:05:20.204Z,1013.29
2019-01-18T05:06:29.241Z,1013.28
2019-01-18T05:07:38.513Z,1013.34
2019-01-18T05:08:47.514Z,1013.34
2019-01-18T05:09:57.066Z,1013.37
2019-01-18T05:11:06.341Z,1013.38
2019-01-18T05:12:15.843Z,1013.38
2019-01-18T05:13:24.837Z,1013.43
2019-01-18T05:14:34.546Z,1013.41
2019-01-18T05:15:43.815Z,1013.4
2019-01-18T05:16:52.797Z,1013.39
2019-01-18T05:18:01.785Z,1013.39
2019-01-18T05:19:11.044Z,1013.41
2019-01-18T05:20:20.321Z,1013.43
2019-01-18T05:21:29.588Z,1013.44
2019-01-18T05:22:39.078Z,1013.42
2019-01-18T05:23:48.348Z,1013.44
2019-01-18T05:24:57.610Z,1013.45
2019-01-18T05:26:07.089Z,1013.44
2019-01-18T05:27:16.336Z,1013.47
2019-01-18T05:28:25.363Z,1013.45
2019-01-18T05:29:34.726Z,1013.49
2019-01-18T05:30:47.570Z,1013.5
2019-01-18T05:31:57.198Z,1013.51
2019-01-18T05:33:06.283Z,1013.5
2019-01-18T05:34:15.820Z,1013.54
2019-01-18T05:35:24.819Z,1013.52
2019-01-18T05:36:34.095Z,1013.52
2019-01-18T05:37:43.410Z,1013.57
2019-01-18T05:38:52.399Z,1013.6
2019-01-18T05:40:02.193Z,1013.6
2019-01-18T05:41:11.914Z,1013.61
2019-01-18T05:42:21.430Z,1013.68
2019-01-18T05:43:30.528Z,1013.69
2019-01-18T05:44:40.861Z,1013.72
2019-01-18T05:45:50.749Z,1013.77
2019-01-18T05:47:00.502Z,1013.75
2019-01-18T05:48:09.786Z,1013.79
2019-01-18T05:49:19.847Z,1013.82
2019-01-18T05:50:29.110Z,1013.87
2019-01-18T05:51:38.112Z,1013.88
2019-01-18T05:52:47.173Z,1013.92
2019-01-18T05:53:56.455Z,1013.93
2019-01-18T05:55:06.229Z,1013.95
2019-01-18T05:56:15.487Z,1013.97
2019-01-18T05:57:24.500Z,1013.99
2019-01-18T05:58:33.526Z,1013.99
2019-01-18T05:59:43.094Z,1014
2019-01-18T06:00:55.243Z,1013.99
2019-01-18T06:02:05.317Z,1013.98
2019-01-18T06:03:14.592Z,1013.96
2019-01-18T06:04:23.878Z,1013.97
2019-01-18T06:05:33.618Z,1013.99
2019-01-18T06:06:43.403Z,1013.93
2019-01-18T06:07:53.188Z,1014.03
2019-01-18T06:09:03.005Z,1014.02
2019-01-18T06:10:13.571Z,1014.02
2019-01-18T06:11:22.880Z,1014.03
2019-01-18T06:12:31.859Z,1014.07
2019-01-18T06:13:41.390Z,1014.03
2019-01-18T06:14:50.401Z,1014.02
2019-01-18T06:15:59.902Z,1014.03
2019-01-18T06:17:09.188Z,1013.99
2019-01-18T06:18:18.684Z,1014.04
2019-01-18T06:19:27.429Z,1014.02
2019-01-18T06:20:36.416Z,1014.05
2019-01-18T06:21:45.507Z,1014.04
2019-01-18T06:22:54.761Z,1014.04
2019-01-18T06:24:04.009Z,1014.04
2019-01-18T06:25:13.619Z,1014.08
2019-01-18T06:26:23.480Z,1014.08
2019-01-18T06:27:32.485Z,1014.1
2019-01-18T06:28:41.791Z,1014.1
2019-01-18T06:29:51.263Z,1014.14
2019-01-18T06:31:01.774Z,1014.12
2019-01-18T06:32:10.936Z,1014.17
2019-01-18T06:33:20.500Z,1014.15
2019-01-18T06:34:30.237Z,1014.2
2019-01-18T06:35:39.996Z,1014.19
2019-01-18T06:36:48.754Z,1014.17
2019-01-18T06:37:58.274Z,1014.21
2019-01-18T06:39:07.476Z,1014.19
2019-01-18T06:40:16.940Z,1014.17
2019-01-18T06:41:26.211Z,1014.2
2019-01-18T06:42:35.470Z,1014.16
2019-01-18T06:43:44.754Z,1014.2
2019-01-18T06:44:55.526Z,1014.24
2019-01-18T06:46:05.620Z,1014.23
2019-01-18T06:47:15.395Z,1014.26
2019-01-18T06:48:24.353Z,1014.27
2019-01-18T06:49:33.622Z,1014.28
2019-01-18T06:50:42.820Z,1014.34
2019-01-18T06:51:52.055Z,1014.39
2019-01-18T06:53:01.568Z,1014.38
2019-01-18T06:54:10.823Z,1014.44
2019-01-18T06:55:20.045Z,1014.45
2019-01-18T06:56:29.027Z,1014.46
2019-01-18T06:57:39.668Z,1014.44
2019-01-18T06:58:48.432Z,1014.44
2019-01-18T06:59:57.932Z,1014.45
2019-01-18T07:01:08.524Z,1014.43
2019-01-18T07:02:17.660Z,1014.41
2019-01-18T07:03:26.642Z,1014.45
2019-01-18T07:04:40.558Z,1014.44
2019-01-18T07:05:50.699Z,1014.47
2019-01-18T07:07:00.219Z,1014.43
2019-01-18T07:08:09.699Z,1014.44
2019-01-18T07:09:19.496Z,1014.43
2019-01-18T07:10:28.966Z,1014.44
2019-01-18T07:11:37.943Z,1014.49
2019-01-18T07:12:46.946Z,1014.5
2019-01-18T07:13:56.436Z,1014.52
2019-01-18T07:15:05.761Z,1014.51
2019-01-18T07:16:14.929Z,1014.55
2019-01-18T07:17:24.504Z,1014.52
2019-01-18T07:18:33.266Z,1014.53
2019-01-18T07:19:42.738Z,1014.56
2019-01-18T07:20:52.033Z,1014.51
2019-01-18T07:22:00.972Z,1014.56
2019-01-18T07:23:09.743Z,1014.58
2019-01-18T07:24:18.973Z,1014.62
2019-01-18T07:25:28.509Z,1014.63
2019-01-18T07:26:38.272Z,1014.65
2019-01-18T07:27:47.542Z,1014.65
2019-01-18T07:28:56.836Z,1014.64
2019-01-18T07:30:06.105Z,1014.66
2019-01-18T07:31:15.876Z,1014.6
2019-01-18T07:32:25.480Z,1014.63
2019-01-18T07:33:35.001Z,1014.62
2019-01-18T07:34:44.058Z,1014.59
2019-01-18T07:35:53.561Z,1014.57
2019-01-18T07:37:02.845Z,1014.6
2019-01-18T07:38:11.853Z,1014.61
2019-01-18T07:39:22.400Z,1014.6
2019-01-18T07:40:32.321Z,1014.61
2019-01-18T07:41:41.839Z,1014.61
2019-01-18T07:42:50.917Z,1014.63
2019-01-18T07:43:59.948Z,1014.61
2019-01-18T07:45:09.458Z,1014.63
2019-01-18T07:46:19.396Z,1014.66
2019-01-18T07:47:28.728Z,1014.7
2019-01-18T07:48:38.053Z,1014.68
2019-01-18T07:49:47.817Z,1014.72
2019-01-18T07:50:56.786Z,1014.73
2019-01-18T07:52:06.113Z,1014.78
2019-01-18T07:53:16.362Z,1014.81
2019-01-18T07:54:25.497Z,1014.84
2019-01-18T07:55:35.315Z,1014.87
2019-01-18T07:56:44.860Z,1014.86
2019-01-18T07:57:54.409Z,1014.9
2019-01-18T07:59:03.952Z,1014.94
2019-01-18T08:00:13.288Z,1014.97
2019-01-18T08:01:22.552Z,1015.01
2019-01-18T08:02:31.581Z,1015.03
2019-01-18T08:03:40.823Z,1015
2019-01-18T08:04:50.066Z,1015.02
2019-01-18T08:05:59.917Z,1015.07
2019-01-18T08:07:09.401Z,1015.02
2019-01-18T08:08:18.687Z,1015.05
2019-01-18T08:09:27.668Z,1015.08
2019-01-18T08:10:36.990Z,1015.1
2019-01-18T08:11:46.541Z,1015.11
2019-01-18T08:12:56.617Z,1015.13
2019-01-18T08:14:06.126Z,1015.16
2019-01-18T08:15:15.689Z,1015.15
2019-01-18T08:16:24.475Z,1015.18
2019-01-18T08:17:33.945Z,1015.21
2019-01-18T08:18:43.233Z,1015.2
2019-01-18T08:19:52.459Z,1015.23
2019-01-18T08:21:01.451Z,1015.22
2019-01-18T08:22:10.467Z,1015.25
2019-01-18T08:23:19.486Z,1015.24
2019-01-18T08:24:29.280Z,1015.31
2019-01-18T08:25:38.356Z,1015.32
2019-01-18T08:26:47.115Z,1015.32
2019-01-18T08:27:56.416Z,1015.35
2019-01-18T08:29:05.981Z,1015.39
2019-01-18T08:30:15.280Z,1015.42
2019-01-18T08:31:28.779Z,1015.37
2019-01-18T08:32:38.110Z,1015.41
2019-01-18T08:33:47.402Z,1015.42
2019-01-18T08:34:56.706Z,1015.41
2019-01-18T08:36:05.794Z,1015.47
2019-01-18T08:37:14.816Z,1015.46
2019-01-18T08:38:24.291Z,1015.45
2019-01-18T08:39:33.505Z,1015.46
2019-01-18T08:40:42.756Z,1015.49
2019-01-18T08:41:52.052Z,1015.57
2019-01-18T08:43:01.813Z,1015.56
2019-01-18T08:44:11.108Z,1015.61
2019-01-18T08:45:20.090Z,1015.66
2019-01-18T08:46:29.850Z,1015.66
2019-01-18T08:47:39.863Z,1015.69
2019-01-18T08:48:49.162Z,1015.69
2019-01-18T08:49:58.432Z,1015.69
2019-01-18T08:51:08.033Z,1015.67
2019-01-18T08:52:17.270Z,1015.69
2019-01-18T08:53:26.327Z,1015.71
2019-01-18T08:54:35.389Z,1015.73
2019-01-18T08:55:45.407Z,1015.73
2019-01-18T08:56:54.167Z,1015.74
2019-01-18T08:58:03.662Z,1015.78
2019-01-18T08:59:12.673Z,1015.79
2019-01-18T09:00:22.203Z,1015.82
2019-01-18T09:01:35.611Z,1015.82
2019-01-18T09:02:45.435Z,1015.81
2019-01-18T09:03:54.945Z,1015.83
2019-01-18T09:05:04.759Z,1015.81
2019-01-18T09:06:14.294Z,1015.87
2019-01-18T09:07:23.568Z,1015.84
2019-01-18T09:08:33.612Z,1015.87
2019-01-18T09:09:43.400Z,1015.91
2019-01-18T09:10:53.198Z,1015.89
2019-01-18T09:12:02.705Z,1015.93
2019-01-18T09:13:12.466Z,1015.95
2019-01-18T09:14:23.598Z,1015.95
2019-01-18T09:15:33.399Z,1015.95
2019-01-18T09:16:43.217Z,1015.95
2019-01-18T09:17:52.515Z,1015.93
2019-01-18T09:19:01.959Z,1015.93
2019-01-18T09:20:11.484Z,1015.94
2019-01-18T09:21:20.717Z,1015.95
2019-01-18T09:22:30.750Z,1015.94
2019-01-18T09:23:40.546Z,1015.97
2019-01-18T09:24:50.291Z,1015.94
2019-01-18T09:25:59.375Z,1015.93
2019-01-18T09:27:08.161Z,1015.98
2019-01-18T09:28:17.675Z,1015.98
2019-01-18T09:29:27.156Z,1015.99
2019-01-18T09:30:36.407Z,1015.98
2019-01-18T09:31:45.725Z,1016
2019-01-18T09:32:54.959Z,1016.03
2019-01-18T09:34:04.548Z,1016.04
2019-01-18T09:35:13.847Z,1016.07
2019-01-18T09:36:23.115Z,1016.06
2019-01-18T09:37:32.116Z,1016.07
2019-01-18T09:38:41.205Z,1016.06
2019-01-18T09:39:50.769Z,1016.1
2019-01-18T09:41:00.027Z,1016.11
2019-01-18T09:42:09.831Z,1016.18
2019-01-18T09:43:18.866Z,1016.14
2019-01-18T09:44:28.118Z,1016.15
2019-01-18T09:45:37.378Z,1016.18
2019-01-18T09:46:46.657Z,1016.16
2019-01-18T09:47:56.194Z,1016.2
2019-01-18T09:49:05.756Z,1016.2
2019-01-18T09:50:14.735Z,1016.22
2019-01-18T09:51:23.798Z,1016.25
2019-01-18T09:52:32.797Z,1016.26
2019-01-18T09:53:41.790Z,1016.29
2019-01-18T09:54:50.844Z,1016.31
2019-01-18T09:56:00.407Z,1016.29
2019-01-18T09:57:09.710Z,1016.33
2019-01-18T09:58:19.276Z,1016.29
2019-01-18T09:59:28.558Z,1016.36
2019-01-18T10:00:37.625Z,1016.36
2019-01-18T10:01:49.340Z,1016.37
2019-01-18T10:02:59.071Z,1016.36
2019-01-18T10:04:08.888Z,1016.38
2019-01-18T10:05:18.159Z,1016.41
2019-01-18T10:06:27.005Z,1016.36
2019-01-18T10:07:36.508Z,1016.39
2019-01-18T10:08:45.501Z,1016.43
2019-01-18T10:09:54.753Z,1016.43
2019-01-18T10:11:04.087Z,1016.42
2019-01-18T10:12:13.157Z,1016.44
2019-01-18T10:13:22.919Z,1016.46
2019-01-18T10:14:32.568Z,1016.45
2019-01-18T10:15:41.346Z,1016.42
2019-01-18T10:16:50.376Z,1016.42
2019-01-18T10:18:00.683Z,1016.39
2019-01-18T10:19:10.592Z,1016.4
2019-01-18T10:20:20.394Z,1016.38
2019-01-18T10:21:29.652Z,1016.42
2019-01-18T10:22:39.183Z,1016.4
2019-01-18T10:23:48.453Z,1016.39
2019-01-18T10:24:57.741Z,1016.4
2019-01-18T10:26:07.331Z,1016.39
2019-01-18T10:27:16.827Z,1016.42
2019-01-18T10:28:31.357Z,1016.39
2019-01-18T10:29:40.391Z,1016.4
2019-01-18T10:30:49.899Z,1016.41
2019-01-18T10:31:58.923Z,1016.41
2019-01-18T10:33:08.202Z,1016.41
2019-01-18T10:34:17.480Z,1016.41
2019-01-18T10:35:27.042Z,1016.4
2019-01-18T10:36:36.357Z,1016.41
2019-01-18T10:37:45.614Z,1016.42
2019-01-18T10:38:54.685Z,1016.43
2019-01-18T10:40:04.483Z,1016.39
2019-01-18T10:41:14.486Z,1016.38
2019-01-18T10:42:23.530Z,1016.37
2019-01-18T10:43:32.350Z,1016.38
2019-01-18T10:44:42.118Z,1016.42
2019-01-18T10:45:51.690Z,1016.42
2019-01-18T10:47:01.513Z,1016.41
2019-01-18T10:48:11.315Z,1016.4
2019-01-18T10:49:21.248Z,1016.36
2019-01-18T10:50:30.575Z,1016.4
2019-01-18T10:51:39.614Z,1016.38
2019-01-18T10:52:49.173Z,1016.4
2019-01-18T10:53:58.420Z,1016.38
2019-01-18T10:55:07.438Z,1016.39
2019-01-18T10:56:16.477Z,1016.39
2019-01-18T10:57:25.473Z,1016.37
2019-01-18T10:58:36.255Z,1016.38
2019-01-18T10:59:45.805Z,1016.4
2019-01-18T11:00:54.828Z,1016.45
2019-01-18T11:02:07.142Z,1016.41
2019-01-18T11:03:16.540Z,1016.47
2019-01-18T11:04:25.553Z,1016.45
2019-01-18T11:05:35.085Z,1016.45
2019-01-18T11:06:44.622Z,1016.42
2019-01-18T11:07:54.624Z,1016.42
2019-01-18T11:09:03.906Z,1016.4
2019-01-18T11:10:12.900Z,1016.43
2019-01-18T11:11:22.177Z,1016.41
2019-01-18T11:12:31.451Z,1016.41
2019-01-18T11:13:40.763Z,1016.4
2019-01-18T11:14:49.769Z,1016.35
2019-01-18T11:15:58.534Z,1016.35
2019-01-18T11:17:08.345Z,1016.35
2019-01-18T11:18:17.364Z,1016.36
2019-01-18T11:19:26.679Z,1016.34
2019-01-18T11:20:36.226Z,1016.38
2019-01-18T11:21:45.801Z,1016.34
2019-01-18T11:22:55.181Z,1016.32
2019-01-18T11:24:03.978Z,1016.37
2019-01-18T11:25:14.388Z,1016.32
2019-01-18T11:26:24.009Z,1016.34
2019-01-18T11:27:33.316Z,1016.29
2019-01-18T11:28:42.897Z,1016.3
2019-01-18T11:29:52.424Z,1016.26
2019-01-18T11:31:01.412Z,1016.25
2019-01-18T11:32:13.755Z,1016.24
2019-01-18T11:33:23.195Z,1016.25
2019-01-18T11:34:32.460Z,1016.25
2019-01-18T11:35:41.436Z,1016.26
2019-01-18T11:36:50.698Z,1016.26
2019-01-18T11:38:04.496Z,1016.23
2019-01-18T11:39:13.509Z,1016.19
2019-01-18T11:40:22.714Z,1016.22
2019-01-18T11:41:32.420Z,1016.21
2019-01-18T11:42:42.245Z,1016.17
2019-01-18T11:43:51.536Z,1016.18
2019-01-18T11:45:01.035Z,1016.16
2019-01-18T11:46:10.523Z,1016.12
2019-01-18T11:47:20.311Z,1016.13
2019-01-18T11:48:30.980Z,1016.1
2019-01-18T11:49:40.270Z,1016.08
2019-01-18T11:50:49.784Z,1016.12
2019-01-18T11:51:59.290Z,1016.12
2019-01-18T11:53:09.064Z,1016.14
2019-01-18T11:54:18.835Z,1016.08
2019-01-18T11:55:28.034Z,1016.13
2019-01-18T11:56:37.026Z,1016.12
2019-01-18T11:57:46.562Z,1016.12
2019-01-18T11:58:56.120Z,1016.14
2019-01-18T12:00:05.427Z,1016.09
2019-01-18T12:01:14.455Z,1016.07
2019-01-18T12:02:23.760Z,1016.05
2019-01-18T12:03:32.817Z,1016.1
2019-01-18T12:04:41.884Z,1016.09
2019-01-18T12:05:51.153Z,1016.09
2019-01-18T12:07:00.478Z,1016.06
2019-01-18T12:08:09.503Z,1016.09
2019-01-18T12:09:18.240Z,1016.05
2019-01-18T12:10:27.501Z,1016.06
2019-01-18T12:11:37.274Z,1016.08
2019-01-18T12:12:46.815Z,1016.06
2019-01-18T12:13:55.608Z,1016.08
2019-01-18T12:15:04.879Z,1016.1
2019-01-18T12:16:13.906Z,1016.07
2019-01-18T12:17:23.415Z,1016.07
2019-01-18T12:18:32.975Z,1016.03
2019-01-18T12:19:42.589Z,1016.01
2019-01-18T12:20:51.892Z,1016.06
2019-01-18T12:22:01.489Z,1016.01
2019-01-18T12:23:10.801Z,1016.02
2019-01-18T12:24:19.863Z,1016.01
2019-01-18T12:25:29.158Z,1016.03
2019-01-18T12:26:38.439Z,1016.03
2019-01-18T12:27:47.759Z,1016.04
2019-01-18T12:28:56.863Z,1016.03
2019-01-18T12:30:06.115Z,1016.05
2019-01-18T12:31:15.388Z,1016.05
2019-01-18T12:32:28.700Z,1015.99
2019-01-18T12:33:38.880Z,1015.97
2019-01-18T12:34:48.483Z,1015.94
2019-01-18T12:35:58.003Z,1015.91
2019-01-18T12:37:07.807Z,1015.92
2019-01-18T12:38:16.875Z,1015.92
2019-01-18T12:39:26.640Z,1015.9
2019-01-18T12:40:36.393Z,1015.9
2019-01-18T12:41:46.011Z,1015.88
2019-01-18T12:42:55.341Z,1015.94
2019-01-18T12:44:05.093Z,1015.91
2019-01-18T12:45:14.168Z,1015.95
2019-01-18T12:46:23.394Z,1015.92
2019-01-18T12:47:32.496Z,1015.91
2019-01-18T12:48:41.762Z,1015.92
2019-01-18T12:49:51.087Z,1015.89
2019-01-18T12:51:00.883Z,1015.94
2019-01-18T12:52:10.152Z,1015.96
2019-01-18T12:53:19.190Z,1015.93
2019-01-18T12:54:29.983Z,1015.91
2019-01-18T12:55:39.541Z,1015.92
2019-01-18T12:56:48.594Z,1015.86
2019-01-18T12:57:57.946Z,1015.88
2019-01-18T12:59:07.570Z,1015.91
2019-01-18T13:00:16.558Z,1015.88
2019-01-18T13:01:25.870Z,1015.89
2019-01-18T13:02:35.710Z,1015.92
2019-01-18T13:03:45.277Z,1015.89
2019-01-18T13:04:54.314Z,1015.87
2019-01-18T13:06:04.404Z,1015.85
2019-01-18T13:07:13.790Z,1015.86
2019-01-18T13:08:22.846Z,1015.85
2019-01-18T13:09:31.719Z,1015.84
2019-01-18T13:10:41.247Z,1015.8
2019-01-18T13:11:51.322Z,1015.76
2019-01-18T13:13:00.893Z,1015.76
2019-01-18T13:14:10.751Z,1015.7
2019-01-18T13:15:20.025Z,1015.7
2019-01-18T13:16:29.069Z,1015.71
2019-01-18T13:17:38.354Z,1015.7
2019-01-18T13:18:47.656Z,1015.69
2019-01-18T13:19:57.257Z,1015.67
2019-01-18T13:21:06.593Z,1015.65
2019-01-18T13:22:16.076Z,1015.66
2019-01-18T13:23:29.012Z,1015.65
2019-01-18T13:24:38.727Z,1015.66
2019-01-18T13:25:48.528Z,1015.71
2019-01-18T13:26:58.090Z,1015.71
2019-01-18T13:28:07.624Z,1015.7
2019-01-18T13:29:17.001Z,1015.7
2019-01-18T13:30:26.135Z,1015.65
2019-01-18T13:31:35.423Z,1015.7
2019-01-18T13:32:44.200Z,1015.69
2019-01-18T13:33:53.533Z,1015.68
2019-01-18T13:35:06.068Z,1015.68
2019-01-18T13:36:15.420Z,1015.72
2019-01-18T13:37:24.712Z,1015.71
2019-01-18T13:38:33.975Z,1015.7
2019-01-18T13:39:43.290Z,1015.76
2019-01-18T13:40:52.343Z,1015.8
2019-01-18T13:42:01.935Z,1015.73
2019-01-18T13:43:11.211Z,1015.75
2019-01-18T13:44:21.043Z,1015.74
2019-01-18T13:45:30.824Z,1015.71
2019-01-18T13:46:39.900Z,1015.79
2019-01-18T13:47:48.948Z,1015.77
2019-01-18T13:48:58.509Z,1015.74
2019-01-18T13:50:07.802Z,1015.76
2019-01-18T13:51:16.910Z,1015.77
2019-01-18T13:52:26.515Z,1015.81
2019-01-18T13:53:35.813Z,1015.82
2019-01-18T13:54:45.648Z,1015.79
2019-01-18T13:55:54.646Z,1015.82
2019-01-18T13:57:04.149Z,1015.81
2019-01-18T13:58:17.364Z,1015.83
2019-01-18T13:59:26.762Z,1015.83
2019-01-18T14:00:36.102Z,1015.83
2019-01-18T14:01:45.178Z,1015.83
2019-01-18T14:02:54.178Z,1015.84
2019-01-18T14:04:03.584Z,1015.81